createdAt,value
2018-11-22T00:00:25.080Z,82.43
2018-11-22T00:02:55.023Z,80.27
2018-11-22T00:05:23.902Z,78.03
2018-11-22T00:07:53.740Z,72.83
2018-11-22T00:10:23.304Z,74.20
2018-11-22T00:12:51.871Z,79.87
2018-11-22T00:15:21.714Z,71.90
2018-11-22T00:17:50.678Z,86.23
2018-11-22T00:20:19.503Z,86.17
2018-11-22T00:22:47.984Z,88.07
2018-11-22T00:25:17.282Z,91.90
2018-11-22T00:27:45.775Z,82.30
2018-11-22T00:30:17.297Z,95.47
2018-11-22T00:32:45.821Z,88.63
2018-11-22T00:35:15.713Z,88.03
2018-11-22T00:37:45.489Z,79.53
2018-11-22T00:40:16.334Z,87.07
2018-11-22T00:42:45.396Z,80.87
2018-11-22T00:45:18.607Z,81.47
2018-11-22T00:47:47.305Z,89.77
2018-11-22T00:50:17.229Z,81.00
2018-11-22T00:52:45.908Z,103.90
2018-11-22T00:55:17.052Z,98.10
2018-11-22T00:57:46.173Z,89.13
2018-11-22T01:00:20.165Z,99.47
2018-11-22T01:02:49.380Z,84.73
2018-11-22T01:05:19.611Z,85.60
2018-11-22T01:07:48.103Z,84.87
2018-11-22T01:10:18.164Z,85.77
2018-11-22T01:12:47.441Z,82.30
2018-11-22T01:15:16.481Z,93.60
2018-11-22T01:17:45.038Z,95.93
2018-11-22T01:20:16.340Z,94.80
2018-11-22T01:22:45.534Z,89.40
2018-11-22T01:25:15.317Z,89.37
2018-11-22T01:27:43.875Z,81.97
2018-11-22T01:30:17.819Z,93.57
2018-11-22T01:32:47.531Z,99.03
2018-11-22T01:35:17.448Z,102.83
2018-11-22T01:37:46.138Z,102.20
2018-11-22T01:40:15.873Z,82.97
2018-11-22T01:42:44.475Z,81.23
2018-11-22T01:45:17.698Z,89.57
2018-11-22T01:47:46.408Z,83.57
2018-11-22T01:50:15.896Z,93.87
2018-11-22T01:52:45.198Z,91.20
2018-11-22T01:55:15.125Z,99.77
2018-11-22T01:57:44.669Z,101.93
2018-11-22T02:00:15.444Z,94.23
2018-11-22T02:02:44.282Z,102.17
2018-11-22T02:05:14.838Z,105.80
2018-11-22T02:07:43.667Z,122.03
2018-11-22T02:10:13.578Z,100.57
2018-11-22T02:12:42.678Z,101.60
2018-11-22T02:15:22.444Z,115.67
2018-11-22T02:17:51.530Z,111.73
2018-11-22T02:20:23.372Z,110.73
2018-11-22T02:22:52.372Z,107.57
2018-11-22T02:25:22.348Z,104.90
2018-11-22T02:27:51.380Z,99.93
2018-11-22T02:30:24.347Z,115.87
2018-11-22T02:32:54.673Z,108.60
2018-11-22T02:35:27.624Z,101.87
2018-11-22T02:37:56.362Z,117.90
2018-11-22T02:40:25.480Z,112.90
2018-11-22T02:42:55.339Z,118.37
2018-11-22T02:45:25.350Z,106.53
2018-11-22T02:47:54.681Z,103.63
2018-11-22T02:50:24.052Z,122.77
2018-11-22T02:52:53.594Z,104.77
2018-11-22T02:55:22.114Z,110.07
2018-11-22T02:57:53.216Z,119.10
2018-11-22T03:00:30.584Z,104.00
2018-11-22T03:03:00.205Z,105.23
2018-11-22T03:05:28.742Z,86.00
2018-11-22T03:07:57.262Z,116.83
2018-11-22T03:10:26.422Z,104.90
2018-11-22T03:12:54.949Z,106.50
2018-11-22T03:15:23.844Z,100.20
2018-11-22T03:17:52.338Z,111.60
2018-11-22T03:20:21.216Z,105.30
2018-11-22T03:22:49.744Z,91.37
2018-11-22T03:25:19.415Z,98.70
2018-11-22T03:27:48.622Z,103.30
2018-11-22T03:30:18.828Z,116.03
2018-11-22T03:32:47.316Z,108.77
2018-11-22T03:35:17.437Z,87.53
2018-11-22T03:37:45.948Z,95.03
2018-11-22T03:40:16.240Z,105.77
2018-11-22T03:42:45.030Z,103.33
2018-11-22T03:45:14.658Z,104.50
2018-11-22T03:47:43.774Z,100.70
2018-11-22T03:50:14.884Z,108.07
2018-11-22T03:52:44.100Z,96.83
2018-11-22T03:55:16.548Z,101.20
2018-11-22T03:57:45.503Z,113.27
2018-11-22T04:00:16.313Z,94.23
2018-11-22T04:02:45.376Z,104.67
2018-11-22T04:05:16.001Z,112.13
2018-11-22T04:07:44.526Z,99.97
2018-11-22T04:10:17.947Z,108.27
2018-11-22T04:12:46.977Z,101.93
2018-11-22T04:15:15.849Z,104.80
2018-11-22T04:17:44.549Z,106.47
2018-11-22T04:20:14.675Z,112.00
2018-11-22T04:22:43.559Z,119.47
2018-11-22T04:25:13.125Z,105.57
2018-11-22T04:27:42.153Z,107.03
2018-11-22T04:30:12.963Z,103.47
2018-11-22T04:32:42.587Z,96.47
2018-11-22T04:35:12.877Z,107.77
2018-11-22T04:37:42.013Z,117.80
2018-11-22T04:40:13.027Z,107.77
2018-11-22T04:42:41.893Z,112.57
2018-11-22T04:45:11.113Z,111.67
2018-11-22T04:47:41.872Z,119.37
2018-11-22T04:50:12.227Z,102.63
2018-11-22T04:52:41.195Z,103.10
2018-11-22T04:55:16.808Z,111.53
2018-11-22T04:57:45.638Z,109.97
2018-11-22T05:00:16.555Z,110.37
2018-11-22T05:02:45.667Z,105.33
2018-11-22T05:05:15.655Z,117.80
2018-11-22T05:07:45.284Z,111.20
2018-11-22T05:10:15.788Z,123.40
2018-11-22T05:12:44.905Z,108.60
2018-11-22T05:15:18.191Z,107.90
2018-11-22T05:17:47.099Z,109.17
2018-11-22T05:20:16.883Z,102.47
2018-11-22T05:22:46.619Z,122.13
2018-11-22T05:25:15.272Z,100.50
2018-11-22T05:27:44.223Z,108.70
2018-11-22T05:30:18.539Z,116.50
2018-11-22T05:32:48.126Z,112.57
2018-11-22T05:35:17.212Z,109.57
2018-11-22T05:37:45.748Z,111.83
2018-11-22T05:40:16.037Z,117.53
2018-11-22T05:42:44.803Z,110.63
2018-11-22T05:45:21.729Z,106.47
2018-11-22T05:47:50.271Z,109.17
2018-11-22T05:50:23.721Z,114.80
2018-11-22T05:52:53.289Z,102.27
2018-11-22T05:55:22.575Z,107.30
2018-11-22T05:57:51.103Z,119.90
2018-11-22T06:00:24.529Z,111.13
2018-11-22T06:02:53.206Z,102.43
2018-11-22T06:05:23.567Z,106.17
2018-11-22T06:07:53.103Z,102.20
2018-11-22T06:10:23.604Z,114.60
2018-11-22T06:12:52.879Z,121.13
2018-11-22T06:15:21.788Z,108.10
2018-11-22T06:17:51.197Z,106.90
2018-11-22T06:20:24.697Z,103.03
2018-11-22T06:22:54.085Z,110.57
2018-11-22T06:25:23.306Z,102.80
2018-11-22T06:27:52.466Z,108.53
2018-11-22T06:30:25.567Z,119.07
2018-11-22T06:32:57.917Z,114.47
2018-11-22T06:35:27.003Z,102.03
2018-11-22T06:37:58.162Z,112.20
2018-11-22T06:40:27.307Z,96.90
2018-11-22T06:42:56.865Z,112.10
2018-11-22T06:45:26.826Z,114.80
2018-11-22T06:47:55.359Z,109.87
2018-11-22T06:50:24.783Z,113.17
2018-11-22T06:52:53.442Z,114.73
2018-11-22T06:55:24.102Z,108.53
2018-11-22T06:57:52.628Z,118.63
2018-11-22T07:00:23.329Z,123.57
2018-11-22T07:02:52.911Z,116.93
2018-11-22T07:05:22.741Z,114.60
2018-11-22T07:07:51.459Z,130.50
2018-11-22T07:10:20.299Z,110.80
2018-11-22T07:12:49.423Z,127.93
2018-11-22T07:15:18.593Z,118.10
2018-11-22T07:17:47.629Z,110.13
2018-11-22T07:20:19.793Z,111.17
2018-11-22T07:22:47.458Z,106.43
2018-11-22T07:25:18.280Z,113.63
2018-11-22T07:27:47.289Z,116.57
2018-11-22T07:30:17.657Z,104.30
2018-11-22T07:32:47.200Z,125.43
2018-11-22T12:18:09.239Z,74.63
2018-11-22T12:20:41.040Z,88.10
2018-11-22T12:23:09.850Z,73.50
2018-11-22T12:25:39.030Z,86.80
2018-11-22T12:28:08.744Z,95.47
2018-11-22T12:30:37.866Z,86.33
2018-11-22T12:33:09.122Z,102.17
2018-11-22T12:35:42.634Z,89.33
2018-11-22T12:38:17.619Z,90.03
2018-11-22T12:40:46.162Z,79.47
2018-11-22T12:43:15.538Z,93.40
2018-11-22T12:45:44.390Z,95.37
2018-11-22T12:48:12.928Z,83.53
2018-11-22T12:50:41.708Z,85.23
2018-11-22T12:53:10.374Z,71.70
2018-11-22T12:55:39.364Z,73.93
2018-11-22T12:58:08.590Z,76.17
2018-11-22T13:00:37.566Z,90.53
2018-11-22T13:03:06.276Z,97.70
2018-11-22T13:05:35.133Z,85.40
2018-11-22T13:08:04.320Z,88.33
2018-11-22T13:10:34.559Z,80.67
2018-11-22T13:13:03.258Z,71.33
2018-11-22T13:15:32.145Z,92.77
2018-11-22T13:18:00.740Z,87.07
2018-11-22T13:20:29.668Z,82.27
2018-11-22T13:22:59.458Z,79.77
2018-11-22T13:25:28.574Z,89.33
2018-11-22T13:27:58.216Z,98.63
2018-11-22T13:30:29.437Z,89.67
2018-11-22T13:32:58.584Z,92.97
2018-11-22T13:35:27.720Z,87.53
2018-11-22T13:37:57.525Z,98.13
2018-11-22T13:40:27.011Z,90.37
2018-11-22T13:42:57.524Z,89.70
2018-11-22T13:45:28.933Z,93.43
2018-11-22T13:47:58.764Z,94.97
2018-11-22T13:50:30.974Z,95.77
2018-11-22T13:53:03.577Z,88.53
2018-11-22T13:55:32.604Z,102.97
2018-11-22T13:58:01.666Z,107.80
2018-11-22T14:00:32.029Z,92.60
2018-11-22T14:03:02.221Z,82.07
2018-11-22T14:05:31.036Z,83.63
2018-11-22T14:07:59.705Z,93.60
2018-11-22T14:10:28.474Z,103.60
2018-11-22T14:12:56.997Z,98.30
2018-11-22T14:15:27.636Z,97.30
2018-11-22T14:17:57.819Z,99.30
2018-11-22T14:20:29.252Z,91.57
2018-11-22T14:22:58.176Z,97.83
2018-11-22T14:25:28.739Z,84.30
2018-11-22T14:27:57.467Z,100.60
2018-11-22T14:30:28.751Z,91.37
2018-11-22T14:32:57.965Z,97.27
2018-11-22T14:35:27.565Z,106.03
2018-11-22T14:37:58.088Z,89.60
2018-11-22T14:40:28.817Z,87.57
2018-11-22T14:42:58.520Z,89.63
2018-11-22T14:45:28.329Z,100.87
2018-11-22T14:47:58.109Z,84.20
2018-11-22T14:50:33.075Z,115.17
2018-11-22T14:53:08.925Z,99.97
2018-11-22T14:55:38.104Z,85.27
2018-11-22T14:58:07.775Z,88.40
2018-11-22T15:00:36.844Z,92.50
2018-11-22T15:03:06.128Z,98.63
2018-11-22T15:05:35.047Z,108.83
2018-11-22T15:08:03.667Z,95.30
2018-11-22T15:10:32.764Z,93.43
2018-11-22T15:13:02.335Z,96.23
2018-11-22T15:15:32.025Z,110.63
2018-11-22T15:18:00.613Z,106.50
2018-11-22T15:20:30.652Z,106.80
2018-11-22T15:22:59.412Z,119.80
2018-11-22T15:25:29.837Z,95.30
2018-11-22T15:27:58.452Z,97.27
2018-11-22T15:30:29.228Z,101.13
2018-11-22T15:32:59.629Z,101.27
2018-11-22T15:35:30.060Z,120.77
2018-11-22T15:37:58.635Z,110.07
2018-11-22T15:40:27.885Z,114.60
2018-11-22T15:42:59.039Z,119.30
2018-11-22T15:45:34.848Z,117.80
2018-11-22T15:47:58.865Z,110.70
2018-11-22T15:50:28.458Z,118.90
2018-11-22T15:52:57.267Z,112.20
2018-11-22T15:55:27.259Z,116.13
2018-11-22T15:57:57.762Z,126.83
2018-11-22T16:00:29.154Z,118.97
2018-11-22T16:02:59.009Z,109.43
2018-11-22T16:05:28.331Z,105.83
2018-11-22T16:07:57.148Z,112.37
2018-11-22T16:10:27.758Z,115.27
2018-11-22T16:13:02.337Z,118.97
2018-11-22T16:15:35.800Z,115.20
2018-11-22T16:18:05.201Z,125.80
2018-11-22T16:20:34.578Z,126.17
2018-11-22T16:23:03.618Z,119.07
2018-11-22T16:25:32.827Z,137.43
2018-11-22T16:28:02.797Z,124.30
2018-11-22T16:30:33.139Z,126.77
2018-11-22T16:33:01.817Z,128.63
2018-11-22T16:35:33.511Z,124.00
2018-11-22T16:37:59.871Z,124.20
2018-11-22T16:40:29.254Z,133.33
2018-11-22T16:42:59.967Z,125.67
2018-11-22T16:45:32.264Z,126.87
2018-11-22T16:48:02.908Z,135.47
2018-11-22T16:50:33.224Z,116.60
2018-11-22T16:53:02.777Z,122.67
2018-11-22T16:55:31.386Z,119.00
2018-11-22T16:58:01.544Z,122.00
2018-11-22T17:00:33.250Z,129.67
2018-11-22T17:03:04.872Z,143.67
2018-11-22T17:05:34.202Z,129.93
2018-11-22T17:08:03.895Z,122.83
2018-11-22T17:10:33.250Z,122.83
2018-11-22T17:13:03.436Z,119.23
2018-11-22T17:15:33.424Z,115.53
2018-11-22T17:18:03.347Z,115.37
2018-11-22T17:20:33.262Z,131.63
2018-11-22T17:23:03.993Z,122.53
2018-11-22T17:25:33.662Z,137.63
2018-11-22T17:28:03.954Z,117.73
2018-11-22T17:30:35.027Z,137.97
2018-11-22T17:33:04.205Z,119.80
2018-11-22T17:35:33.351Z,119.53
2018-11-22T17:38:03.882Z,123.70
2018-11-22T17:40:35.612Z,131.10
2018-11-22T17:43:04.765Z,116.10
2018-11-22T17:45:36.551Z,131.57
2018-11-22T17:48:06.282Z,118.77
2018-11-22T17:50:36.589Z,124.57
2018-11-22T17:53:05.692Z,125.23
2018-11-22T17:55:34.853Z,120.60
2018-11-22T17:58:03.638Z,139.23
2018-11-22T18:00:36.239Z,123.23
2018-11-22T18:03:05.845Z,119.47
2018-11-22T18:05:36.978Z,121.47
2018-11-22T18:08:05.911Z,122.57
2018-11-22T18:10:36.352Z,118.43
2018-11-22T18:13:05.005Z,106.13
2018-11-22T18:15:42.402Z,100.97
2018-11-22T18:18:18.519Z,108.87
2018-11-22T18:20:53.602Z,110.07
2018-11-22T18:23:27.676Z,131.43
2018-11-22T18:25:57.044Z,123.00
2018-11-22T18:28:25.998Z,102.93
2018-11-22T18:30:57.120Z,101.70
2018-11-22T18:33:26.448Z,114.30
2018-11-22T18:35:57.672Z,106.33
2018-11-22T18:38:27.344Z,131.77
2018-11-22T18:40:56.645Z,95.87
2018-11-22T18:43:27.693Z,113.83
2018-11-22T18:45:56.304Z,112.63
2018-11-22T18:48:27.168Z,103.17
2018-11-22T18:50:56.145Z,115.07
2018-11-22T18:53:25.925Z,104.60
2018-11-22T18:55:56.519Z,107.03
2018-11-22T18:58:28.428Z,114.20
2018-11-22T19:01:04.240Z,103.17
2018-11-22T19:03:45.536Z,101.73
2018-11-22T19:06:14.173Z,101.87
2018-11-22T19:08:44.114Z,101.07
2018-11-22T19:11:14.760Z,107.77
2018-11-22T19:13:43.688Z,97.93
2018-11-22T19:16:12.242Z,114.50
2018-11-22T19:18:41.280Z,120.60
2018-11-22T19:21:10.862Z,111.70
2018-11-22T19:23:40.868Z,90.53
2018-11-22T19:26:09.481Z,92.60
2018-11-22T19:28:38.665Z,100.83
2018-11-22T19:31:07.437Z,101.43
2018-11-22T19:33:36.390Z,106.43
2018-11-22T19:36:04.970Z,102.13
2018-11-22T19:38:34.443Z,110.47
2018-11-22T19:41:03.030Z,107.90
2018-11-22T19:43:32.662Z,114.20
2018-11-22T19:46:01.446Z,104.67
2018-11-22T19:48:30.614Z,108.47
2018-11-22T19:51:05.625Z,107.53
2018-11-22T19:53:28.974Z,107.17
2018-11-22T19:55:57.542Z,107.27
2018-11-22T19:58:26.371Z,111.40
2018-11-22T20:00:55.109Z,98.83
2018-11-22T20:03:23.906Z,102.97
2018-11-22T20:05:52.468Z,107.20
2018-11-22T20:08:22.962Z,96.23
2018-11-22T20:10:51.737Z,98.77
2018-11-22T20:13:20.607Z,101.57
2018-11-22T20:15:50.847Z,98.53
2018-11-22T20:18:18.274Z,101.27
2018-11-22T20:20:49.920Z,103.07
2018-11-22T20:23:21.955Z,113.63
2018-11-22T20:25:47.910Z,103.03
2018-11-22T20:28:16.758Z,98.43
2018-11-22T20:30:45.923Z,99.17
2018-11-22T20:33:15.354Z,100.00
2018-11-22T20:35:44.130Z,93.87
2018-11-22T20:38:13.535Z,94.07
2018-11-22T20:40:42.244Z,106.27
2018-11-22T20:43:12.500Z,111.90
2018-11-22T20:45:41.346Z,110.20
2018-11-22T20:48:10.032Z,95.60
2018-11-22T20:50:39.826Z,87.57
2018-11-22T20:53:08.742Z,97.60
2018-11-22T20:55:38.637Z,105.83
2018-11-22T20:58:08.157Z,93.50
2018-11-22T21:00:38.554Z,102.13
2018-11-22T21:03:07.520Z,100.63
2018-11-22T21:05:37.691Z,94.53
2018-11-22T21:08:06.945Z,92.77
2018-11-22T21:10:35.774Z,97.43
2018-11-22T21:13:05.165Z,109.57
2018-11-22T21:15:34.555Z,104.97
2018-11-22T21:18:04.791Z,114.20
2018-11-22T21:20:35.020Z,99.90
2018-11-22T21:23:04.632Z,101.37
2018-11-22T21:25:34.710Z,97.67
2018-11-22T21:28:03.618Z,115.50
2018-11-22T21:30:33.651Z,101.90
2018-11-22T21:33:03.710Z,104.17
2018-11-22T21:35:32.993Z,90.03
2018-11-22T21:38:02.558Z,110.97
2018-11-22T21:40:32.275Z,102.37
2018-11-22T21:43:00.961Z,99.60
2018-11-22T21:45:33.513Z,106.83
2018-11-22T21:48:02.357Z,102.07
2018-11-22T21:50:31.197Z,117.90
2018-11-22T21:53:00.335Z,102.40
2018-11-22T21:55:29.845Z,105.17
2018-11-22T21:58:00.149Z,97.70
2018-11-22T22:00:33.033Z,108.10
2018-11-22T22:03:03.347Z,103.83
2018-11-22T22:05:32.529Z,95.73
2018-11-22T22:08:01.436Z,112.13
2018-11-22T22:10:30.040Z,102.77
2018-11-22T22:13:01.332Z,88.80
2018-11-22T22:15:31.107Z,119.70
2018-11-22T22:18:00.504Z,106.67
2018-11-22T22:20:33.003Z,99.87
2018-11-22T22:23:02.185Z,99.53
2018-11-22T22:25:31.987Z,91.73
2018-11-22T22:28:01.705Z,142.30
2018-11-22T22:30:32.388Z,126.93
2018-11-22T22:33:03.669Z,118.23
2018-11-22T22:35:32.443Z,98.23
2018-11-22T22:38:01.257Z,106.53
2018-11-22T22:40:31.811Z,103.30
2018-11-22T22:43:01.716Z,113.20
2018-11-22T22:45:32.100Z,102.53
2018-11-22T22:48:01.107Z,114.60
2018-11-22T22:50:30.779Z,107.37
2018-11-22T22:53:00.587Z,109.60
2018-11-22T22:55:30.408Z,105.70
2018-11-22T22:57:59.547Z,104.93
2018-11-22T23:00:33.731Z,107.20
2018-11-22T23:03:05.753Z,105.77
2018-11-22T23:05:34.667Z,113.73
2018-11-22T23:08:04.117Z,110.57
2018-11-22T23:10:33.507Z,113.43
2018-11-22T23:13:02.705Z,110.47
2018-11-22T23:15:32.079Z,113.70
2018-11-22T23:18:01.126Z,114.40
2018-11-22T23:20:31.715Z,110.77
2018-11-22T23:23:00.718Z,103.83
2018-11-22T23:25:30.104Z,101.27
2018-11-22T23:27:58.969Z,108.27
2018-11-22T23:30:28.825Z,113.63
2018-11-22T23:32:58.973Z,109.17
2018-11-22T23:35:27.526Z,117.43
2018-11-22T23:37:57.088Z,103.60
2018-11-22T23:40:27.136Z,110.47
2018-11-22T23:42:56.373Z,116.17
2018-11-22T23:45:28.002Z,117.67
2018-11-22T23:47:56.797Z,120.20
2018-11-22T23:50:26.782Z,108.67
2018-11-22T23:52:57.095Z,104.03
2018-11-22T23:55:26.356Z,114.97
2018-11-22T23:57:55.228Z,99.90
